| time (UTC) | temp F | wind direction | speed MPH | gust MPH | rain 1hr in | rain 24hr in | rain mn in | humidity % | barometer mb |
| 20260904090800 | 75 | 118 | 11.0 | 39.0 | 0.00 | 0.00 | 0.00 | 78 | 1012.8 |
| 20260904090258 | 75 | 303 | 9.0 | 23.0 | 0.00 | 0.00 | 0.00 | 79 | 1012.9 |
| 20260904085800 | 74 | 309 | 9.0 | 23.0 | 0.00 | 0.00 | 0.00 | 80 | 1012.8 |
| 20260904085257 | 73 | 285 | 7.0 | 22.0 | 0.00 | 0.00 | 0.00 | 81 | 1013.1 |
| 20260904084757 | 73 | 265 | 11.0 | 25.0 | 0.00 | 0.00 | 0.00 | 82 | 1013.2 |
| 20260904084256 | 72 | 322 | 9.0 | 25.0 | 0.00 | 0.00 | 0.00 | 83 | 1013.3 |
| 20260904083755 | 72 | 327 | 9.0 | 25.0 | 0.00 | 0.00 | 0.00 | 83 | 1013.3 |
| 20260904083254 | 72 | 303 | 11.0 | 34.0 | 0.00 | 0.00 | 0.00 | 83 | 1013.5 |
| 20260904082755 | 72 | 308 | 12.0 | 34.0 | 0.00 | 0.00 | 0.00 | 83 | 1013.5 |
| 20260904081752 | 72 | 298 | 9.0 | 23.0 | 0.00 | 0.00 | 0.00 | 82 | 1013.5 |
| 20260904081252 | 72 | 289 | 7.0 | 22.0 | 0.00 | 0.00 | 0.00 | 82 | 1013.3 |
| 20260904080751 | 72 | 239 | 9.0 | 25.0 | 0.00 | 0.00 | 0.00 | 82 | 1013.4 |
| 20260904080253 | 72 | 322 | 9.0 | 25.0 | 0.00 | 0.00 | 0.00 | 83 | 1013.3 |
| 20260904075751 | 72 | 281 | 5.0 | 23.0 | 0.00 | 0.00 | 0.00 | 83 | 1013.4 |
| 20260904075251 | 72 | 322 | 5.0 | 14.0 | 0.00 | 0.00 | 0.00 | 84 | 1013.5 |
| 20260904074750 | 72 | 107 | 7.0 | 18.0 | 0.00 | 0.00 | 0.00 | 84 | 1013.5 |
| 20260904074249 | 72 | 323 | 9.0 | 34.0 | 0.00 | 0.00 | 0.00 | 85 | 1013.5 |
| 20260904073750 | 71 | 169 | 11.0 | 34.0 | 0.00 | 0.00 | 0.00 | 85 | 1013.5 |
| 20260904073246 | 71 | 290 | 11.0 | 29.0 | 0.00 | 0.00 | 0.00 | 85 | 1013.6 |
| 20260904072747 | 71 | 302 | 11.0 | 29.0 | 0.00 | 0.00 | 0.00 | 86 | 1013.5 |
| 20260904072246 | 71 | 275 | 9.0 | 27.0 | 0.00 | 0.00 | 0.00 | 86 | 1013.6 |
| 20260904071744 | 71 | 315 | 9.0 | 25.0 | 0.00 | 0.00 | 0.00 | 86 | 1013.6 |
| 20260904071244 | 71 | 285 | 9.0 | 27.0 | 0.00 | 0.00 | 0.00 | 86 | 1013.5 |
| 20260904070744 | 71 | 184 | 9.0 | 27.0 | 0.00 | 0.00 | 0.00 | 87 | 1013.5 |
| 20260904070244 | 71 | 296 | 7.0 | 22.0 | 0.00 | 0.00 | 0.00 | 87 | 1013.6 |
| 20260904065743 | 71 | 303 | 9.0 | 29.0 | 0.00 | 0.00 | 0.00 | 87 | 1013.7 |
| 20260904065242 | 71 | 315 | 7.0 | 29.0 | 0.00 | 0.00 | 0.00 | 88 | 1013.7 |
| 20260904063238 | 70 | 215 | 7.0 | 22.0 | 0.00 | 0.00 | 0.00 | 89 | 1013.8 |
| 20260904061736 | 70 | 321 | 5.0 | 14.0 | 0.00 | 0.00 | 0.00 | 89 | 1013.8 |
| 20260904061235 | 70 | 309 | 5.0 | 14.0 | 0.00 | 0.00 | 0.00 | 89 | 1013.9 |
| 20260904060732 | 70 | 307 | 5.0 | 20.0 | 0.00 | 0.00 | 0.00 | 90 | 1014.0 |
| 20260904060231 | 69 | 262 | 4.0 | 20.0 | 0.00 | 0.00 | 0.00 | 90 | 1014.0 |
| 20260904055733 | 69 | 297 | 4.0 | 14.0 | 0.00 | 0.00 | 0.00 | 90 | 1014.0 |
| 20260904054732 | 69 | 269 | 5.0 | 14.0 | 0.00 | 0.00 | 0.00 | 90 | 1014.1 |
| 20260904053731 | 69 | 228 | 5.0 | 12.0 | 0.00 | 0.00 | 0.00 | 89 | 1014.3 |
| 20260904053231 | 69 | 325 | 5.0 | 16.0 | 0.00 | 0.00 | 0.00 | 89 | 1014.3 |
| 20260904052730 | 69 | 201 | 5.0 | 16.0 | 0.00 | 0.00 | 0.00 | 89 | 1014.2 |
| 20260904052230 | 69 | 311 | 5.0 | 16.0 | 0.00 | 0.00 | 0.00 | 90 | 1014.3 |
| 20260904051732 | 69 | 305 | 5.0 | 16.0 | 0.00 | 0.00 | 0.00 | 90 | 1014.3 |
| 20260904051232 | 69 | 341 | 4.0 | 14.0 | 0.00 | 0.00 | 0.00 | 90 | 1014.4 |
| 20260904050732 | 69 | 318 | 4.0 | 12.0 | 0.00 | 0.00 | 0.00 | 90 | 1014.3 |
| 20260904045730 | 69 | 285 | 5.0 | 20.0 | 0.00 | 0.00 | 0.00 | 90 | 1014.4 |
| 20260904045231 | 69 | 295 | 5.0 | 20.0 | 0.00 | 0.00 | 0.00 | 90 | 1014.6 |
| 20260904044733 | 69 | 298 | 5.0 | 16.0 | 0.00 | 0.00 | 0.00 | 90 | 1014.6 |
| 20260904044230 | 69 | 310 | 5.0 | 12.0 | 0.00 | 0.00 | 0.00 | 90 | 1014.7 |
| 20260904043735 | 69 | 89 | 5.0 | 12.0 | 0.00 | 0.00 | 0.00 | 90 | 1014.8 |
| 20260904043232 | 69 | 320 | 4.0 | 12.0 | 0.00 | 0.00 | 0.00 | 90 | 1014.9 |
| 20260904042733 | 69 | 287 | 4.0 | 12.0 | 0.00 | 0.00 | 0.00 | 90 | 1014.9 |
| 20260904042230 | 69 | 283 | 5.0 | 18.0 | 0.00 | 0.00 | 0.00 | 90 | 1014.9 |
| 20260904041733 | 69 | 324 | 5.0 | 18.0 | 0.00 | 0.00 | 0.00 | 90 | 1014.9 |
| 20260904040725 | 69 | 227 | 5.0 | 20.0 | 0.00 | 0.00 | 0.00 | 90 | 1015.0 |
| 20260904035724 | 69 | 332 | 5.0 | 20.0 | 0.00 | 0.00 | 0.00 | 90 | 1015.1 |
| 20260904034728 | 69 | 330 | 7.0 | 20.0 | 0.00 | 0.00 | 0.00 | 90 | 1015.0 |
| 20260904034224 | 69 | 303 | 5.0 | 18.0 | 0.00 | 0.00 | 0.00 | 90 | 1014.9 |
| 20260904033725 | 69 | 257 | 5.0 | 14.0 | 0.00 | 0.00 | 0.00 | 90 | 1015.0 |
| 20260904033222 | 69 | 314 | 5.0 | 16.0 | 0.00 | 0.00 | 0.00 | 90 | 1015.1 |
| 20260904032723 | 69 | 316 | 5.0 | 16.0 | 0.00 | 0.00 | 0.00 | 90 | 1015.1 |
| 20260904032223 | 69 | 324 | 4.0 | 14.0 | 0.00 | 0.00 | 0.00 | 90 | 1015.1 |
| 20260904031713 | 69 | 313 | 5.0 | 20.0 | 0.00 | 0.00 | 0.00 | 90 | 1015.1 |
| 20260904030213 | 69 | 332 | 5.0 | 18.0 | 0.00 | 0.00 | 0.00 | 90 | 1015.2 |
| 20260904025208 | 69 | 186 | 4.0 | 16.0 | 0.00 | 0.00 | 0.00 | 90 | 1015.2 |
| 20260904024206 | 69 | 114 | 5.0 | 16.0 | 0.00 | 0.00 | 0.00 | 90 | 1015.4 |
| 20260904023703 | 70 | 153 | 5.0 | 16.0 | 0.00 | 0.00 | 0.00 | 90 | 1015.6 |
| 20260904023204 | 70 | 272 | 5.0 | 14.0 | 0.00 | 0.00 | 0.00 | 90 | 1015.6 |
| 20260904022702 | 70 | 246 | 4.0 | 14.0 | 0.00 | 0.00 | 0.00 | 89 | 1015.6 |
| 20260904022204 | 70 | 301 | 4.0 | 16.0 | 0.00 | 0.00 | 0.00 | 89 | 1015.8 |
| 20260904021704 | 70 | 274 | 4.0 | 16.0 | 0.00 | 0.00 | 0.00 | 89 | 1015.9 |
| 20260904021159 | 70 | 236 | 5.0 | 12.0 | 0.00 | 0.00 | 0.00 | 89 | 1015.9 |
| 20260904020152 | 70 | 323 | 5.0 | 18.0 | 0.00 | 0.00 | 0.00 | 89 | 1016.0 |
| 20260904015654 | 70 | 282 | 5.0 | 18.0 | 0.00 | 0.00 | 0.00 | 89 | 1016.1 |
| 20260904014648 | 70 | 232 | 5.0 | 18.0 | 0.00 | 0.00 | 0.00 | 89 | 1016.4 |
| 20260904014148 | 70 | 81 | 5.0 | 18.0 | 0.00 | 0.00 | 0.00 | 89 | 1016.4 |
| 20260904013644 | 70 | 264 | 5.0 | 25.0 | 0.00 | 0.00 | 0.00 | 89 | 1016.4 |
| 20260904013146 | 70 | 305 | 5.0 | 25.0 | 0.00 | 0.00 | 0.00 | 89 | 1016.4 |
| 20260904012644 | 70 | 275 | 5.0 | 14.0 | 0.00 | 0.00 | 0.00 | 89 | 1016.5 |
| 20260904012145 | 70 | 284 | 5.0 | 14.0 | 0.00 | 0.00 | 0.00 | 89 | 1016.5 |
| 20260904011644 | 70 | 95 | 5.0 | 18.0 | 0.00 | 0.00 | 0.00 | 89 | 1016.4 |
| 20260904011145 | 70 | 287 | 5.0 | 18.0 | 0.00 | 0.00 | 0.00 | 89 | 1016.5 |
| 20260904010644 | 70 | 101 | 4.0 | 12.0 | 0.00 | 0.00 | 0.00 | 89 | 1016.6 |
| 20260904005643 | 70 | 322 | 5.0 | 18.0 | 0.00 | 0.00 | 0.00 | 89 | 1016.6 |
| 20260904005141 | 70 | 316 | 5.0 | 22.0 | 0.00 | 0.00 | 0.00 | 89 | 1016.6 |
| 20260904004638 | 70 | 297 | 5.0 | 22.0 | 0.00 | 0.00 | 0.00 | 89 | 1016.7 |
| 20260904004138 | 70 | 316 | 5.0 | 20.0 | 0.00 | 0.00 | 0.00 | 89 | 1016.8 |
| 20260904003640 | 70 | 299 | 5.0 | 20.0 | 0.00 | 0.00 | 0.00 | 89 | 1016.8 |
| 20260904003136 | 70 | 276 | 5.0 | 18.0 | 0.00 | 0.00 | 0.00 | 89 | 1016.8 |
| 20260904002635 | 70 | 280 | 4.0 | 16.0 | 0.00 | 0.00 | 0.00 | 89 | 1016.8 |
| 20260904002137 | 71 | 87 | 4.0 | 14.0 | 0.00 | 0.00 | 0.00 | 88 | 1016.8 |
| 20260904001635 | 71 | 353 | 4.0 | 14.0 | 0.00 | 0.00 | 0.00 | 88 | 1016.7 |
| 20260904001137 | 71 | 257 | 5.0 | 16.0 | 0.00 | 0.00 | 0.00 | 88 | 1016.6 |
| 20260904000635 | 71 | 255 | 5.0 | 16.0 | 0.00 | 0.00 | 0.00 | 88 | 1016.7 |
| 20260904000135 | 71 | 323 | 5.0 | 16.0 | 0.00 | 0.00 | 0.00 | 88 | 1016.8 |
| 20260903235146 | 71 | 301 | 5.0 | 16.0 | 0.00 | 0.00 | 0.00 | 88 | 1017.0 |
| 20260903234635 | 71 | 193 | 5.0 | 14.0 | 0.00 | 0.00 | 0.00 | 88 | 1017.1 |
| 20260903234132 | 71 | 330 | 4.0 | 14.0 | 0.00 | 0.00 | 0.00 | 88 | 1016.9 |
| 20260903233131 | 71 | 276 | 5.0 | 14.0 | 0.00 | 0.00 | 0.00 | 88 | 1017.2 |
| 20260903232632 | 71 | 311 | 5.0 | 14.0 | 0.00 | 0.00 | 0.00 | 89 | 1017.2 |
| 20260903231133 | 71 | 305 | 7.0 | 18.0 | 0.00 | 0.00 | 0.00 | 89 | 1017.5 |
| 20260903230632 | 70 | 314 | 5.0 | 18.0 | 0.00 | 0.00 | 0.00 | 89 | 1017.5 |
| 20260903230132 | 70 | 293 | 5.0 | 18.0 | 0.00 | 0.00 | 0.00 | 90 | 1017.5 |
| 20260903225633 | 70 | 293 | 5.0 | 18.0 | 0.00 | 0.00 | 0.00 | 90 | 1017.7 |
| 20260903225132 | 70 | 276 | 5.0 | 14.0 | 0.00 | 0.00 | 0.00 | 90 | 1017.5 |
| 20260903224633 | 70 | 267 | 5.0 | 11.0 | 0.00 | 0.00 | 0.00 | 90 | 1017.6 |
| 20260903223628 | 70 | 94 | 4.0 | 11.0 | 0.00 | 0.00 | 0.00 | 90 | 1017.7 |
| 20260903223131 | 70 | 208 | 4.0 | 14.0 | 0.00 | 0.00 | 0.00 | 90 | 1017.8 |
| 20260903222630 | 70 | 309 | 4.0 | 14.0 | 0.00 | 0.00 | 0.00 | 90 | 1017.8 |
| 20260903222123 | 70 | 341 | 4.0 | 12.0 | 0.00 | 0.00 | 0.00 | 90 | 1017.7 |
| 20260903221622 | 70 | 293 | 4.0 | 12.0 | 0.00 | 0.00 | 0.00 | 90 | 1017.6 |
| 20260903221120 | 70 | 311 | 4.0 | 14.0 | 0.00 | 0.00 | 0.00 | 90 | 1017.7 |
| 20260903220110 | 71 | 230 | 4.0 | 16.0 | 0.00 | 0.00 | 0.00 | 89 | 1017.6 |
| 20260903215611 | 71 | 241 | 4.0 | 16.0 | 0.00 | 0.00 | 0.00 | 89 | 1017.7 |
| 20260903215105 | 71 | 149 | 4.0 | 12.0 | 0.00 | 0.00 | 0.00 | 89 | 1017.8 |
| 20260903214606 | 71 | 351 | 5.0 | 22.0 | 0.00 | 0.00 | 0.00 | 89 | 1017.9 |
| 20260903214105 | 71 | 101 | 5.0 | 22.0 | 0.00 | 0.00 | 0.00 | 89 | 1018.1 |
| 20260903213604 | 71 | 291 | 5.0 | 18.0 | 0.00 | 0.00 | 0.00 | 89 | 1018.1 |
| 20260903213105 | 71 | 291 | 5.0 | 16.0 | 0.00 | 0.00 | 0.00 | 89 | 1018.1 |
| 20260903212606 | 71 | 293 | 5.0 | 20.0 | 0.00 | 0.00 | 0.00 | 88 | 1018.1 |
| 20260903212102 | 71 | 311 | 7.0 | 23.0 | 0.00 | 0.00 | 0.00 | 89 | 1018.3 |
| 20260903211603 | 71 | 306 | 7.0 | 23.0 | 0.00 | 0.00 | 0.00 | 88 | 1018.2 |
| 20260903210604 | 71 | 314 | 5.0 | 18.0 | 0.00 | 0.00 | 0.00 | 88 | 1018.3 |
| 20260903205602 | 71 | 299 | 7.0 | 18.0 | 0.00 | 0.00 | 0.00 | 87 | 1018.5 |
| 20260903205109 | 71 | 315 | 7.0 | 18.0 | 0.00 | 0.00 | 0.00 | 87 | 1018.4 |
| 20260903204604 | 71 | 267 | 7.0 | 18.0 | 0.00 | 0.00 | 0.00 | 87 | 1018.4 |
| 20260903204104 | 71 | 301 | 7.0 | 20.0 | 0.00 | 0.00 | 0.00 | 87 | 1018.5 |
| 20260903203607 | 71 | 172 | 7.0 | 20.0 | 0.00 | 0.00 | 0.00 | 87 | 1018.5 |
| 20260903203109 | 71 | 294 | 7.0 | 22.0 | 0.00 | 0.00 | 0.00 | 86 | 1018.2 |
| 20260903202605 | 71 | 292 | 7.0 | 22.0 | 0.00 | 0.00 | 0.00 | 86 | 1018.3 |
| 20260903202104 | 71 | 313 | 5.0 | 18.0 | 0.00 | 0.00 | 0.00 | 86 | 1018.3 |
| 20260903201105 | 71 | 311 | 5.0 | 16.0 | 0.00 | 0.00 | 0.00 | 86 | 1018.3 |
| 20260903200603 | 71 | 296 | 4.0 | 18.0 | 0.00 | 0.00 | 0.00 | 86 | 1018.1 |
| 20260903200103 | 71 | 342 | 5.0 | 18.0 | 0.00 | 0.00 | 0.00 | 86 | 1018.3 |
| 20260903195103 | 71 | 114 | 5.0 | 18.0 | 0.00 | 0.00 | 0.00 | 86 | 1018.3 |
| 20260903194602 | 71 | 153 | 4.0 | 18.0 | 0.00 | 0.00 | 0.00 | 86 | 1018.4 |
| 20260903193107 | 72 | 295 | 4.0 | 12.0 | 0.00 | 0.00 | 0.00 | 86 | 1018.6 |
| 20260903192605 | 72 | 188 | 4.0 | 12.0 | 0.00 | 0.00 | 0.00 | 86 | 1018.3 |
| 20260903192103 | 72 | 139 | 2.0 | 12.0 | 0.00 | 0.00 | 0.00 | 86 | 1018.3 |
| 20260903191604 | 72 | 320 | 4.0 | 16.0 | 0.00 | 0.00 | 0.00 | 85 | 1018.5 |
| 20260903191106 | 72 | 327 | 5.0 | 18.0 | 0.00 | 0.00 | 0.00 | 85 | 1018.5 |
| 20260903190604 | 72 | 276 | 5.0 | 18.0 | 0.00 | 0.00 | 0.00 | 85 | 1018.5 |
| 20260903190106 | 72 | 293 | 5.0 | 16.0 | 0.00 | 0.00 | 0.00 | 85 | 1018.4 |
| 20260903185605 | 72 | 112 | 7.0 | 18.0 | 0.00 | 0.00 | 0.00 | 85 | 1018.3 |
| 20260903185104 | 72 | 289 | 7.0 | 18.0 | 0.00 | 0.00 | 0.00 | 85 | 1018.4 |
| 20260903184606 | 72 | 303 | 5.0 | 16.0 | 0.00 | 0.00 | 0.00 | 85 | 1018.3 |
| 20260903183605 | 72 | 314 | 4.0 | 11.0 | 0.00 | 0.00 | 0.00 | 85 | 1018.3 |
| 20260903183103 | 72 | 310 | 4.0 | 16.0 | 0.00 | 0.00 | 0.00 | 86 | 1018.3 |
| 20260903182606 | 72 | 301 | 5.0 | 16.0 | 0.00 | 0.00 | 0.00 | 86 | 1018.3 |
| 20260903182105 | 72 | 313 | 5.0 | 20.0 | 0.00 | 0.00 | 0.00 | 86 | 1018.4 |
| 20260903181607 | 72 | 296 | 4.0 | 20.0 | 0.00 | 0.00 | 0.00 | 86 | 1018.4 |
| 20260903181106 | 72 | 247 | 4.0 | 12.0 | 0.00 | 0.00 | 0.00 | 86 | 1018.4 |
| 20260903180104 | 72 | 313 | 4.0 | 16.0 | 0.00 | 0.00 | 0.00 | 86 | 1018.2 |
| 20260903175559 | 72 | 299 | 4.0 | 11.0 | 0.00 | 0.00 | 0.00 | 86 | 1018.2 |
| 20260903175054 | 72 | 324 | 5.0 | 12.0 | 0.00 | 0.00 | 0.00 | 85 | 1018.3 |
| 20260903174555 | 72 | 324 | 4.0 | 16.0 | 0.00 | 0.00 | 0.00 | 85 | 1018.3 |
| 20260903174055 | 72 | 328 | 4.0 | 16.0 | 0.00 | 0.00 | 0.00 | 85 | 1018.4 |
| 20260903172549 | 73 | 320 | 5.0 | 16.0 | 0.00 | 0.00 | 0.00 | 84 | 1018.3 |
| 20260903172049 | 73 | 333 | 4.0 | 12.0 | 0.00 | 0.00 | 0.00 | 84 | 1018.5 |
| 20260903171545 | 73 | 284 | 5.0 | 14.0 | 0.00 | 0.00 | 0.00 | 84 | 1018.5 |
| 20260903171045 | 73 | 292 | 4.0 | 14.0 | 0.00 | 0.00 | 0.00 | 84 | 1018.4 |
| 20260903170543 | 73 | 342 | 4.0 | 22.0 | 0.00 | 0.00 | 0.00 | 84 | 1018.5 |
| 20260903170044 | 73 | 323 | 5.0 | 22.0 | 0.00 | 0.00 | 0.00 | 83 | 1018.6 |
| 20260903165546 | 73 | 297 | 5.0 | 16.0 | 0.00 | 0.00 | 0.00 | 83 | 1018.5 |
| 20260903165043 | 73 | 301 | 7.0 | 16.0 | 0.00 | 0.00 | 0.00 | 83 | 1018.5 |
| 20260903164542 | 73 | 275 | 4.0 | 14.0 | 0.00 | 0.00 | 0.00 | 83 | 1018.5 |
| 20260903164041 | 73 | 293 | 4.0 | 12.0 | 0.00 | 0.00 | 0.00 | 83 | 1018.3 |
| 20260903163044 | 74 | 293 | 5.0 | 18.0 | 0.00 | 0.00 | 0.00 | 82 | 1018.4 |
| 20260903162540 | 74 | 301 | 4.0 | 12.0 | 0.00 | 0.00 | 0.00 | 82 | 1018.5 |
| 20260903161540 | 74 | 262 | 4.0 | 16.0 | 0.00 | 0.00 | 0.00 | 81 | 1018.2 |
| 20260903161042 | 74 | 125 | 4.0 | 16.0 | 0.00 | 0.00 | 0.00 | 81 | 1018.2 |
| 20260903160535 | 74 | 286 | 4.0 | 14.0 | 0.00 | 0.00 | 0.00 | 81 | 1018.2 |
| 20260903160035 | 74 | 237 | 5.0 | 16.0 | 0.00 | 0.00 | 0.00 | 81 | 1018.2 |
| 20260903155534 | 74 | 294 | 5.0 | 16.0 | 0.00 | 0.00 | 0.00 | 81 | 1018.3 |
| 20260903155032 | 74 | 159 | 5.0 | 14.0 | 0.00 | 0.00 | 0.00 | 83 | 1018.3 |
| 20260903154532 | 73 | 284 | 5.0 | 18.0 | 0.00 | 0.00 | 0.00 | 83 | 1018.3 |
| 20260903154032 | 73 | 299 | 5.0 | 18.0 | 0.00 | 0.00 | 0.00 | 83 | 1018.5 |
| 20260903153533 | 73 | 285 | 4.0 | 20.0 | 0.00 | 0.00 | 0.00 | 84 | 1018.5 |
| 20260903153030 | 73 | 234 | 4.0 | 20.0 | 0.00 | 0.00 | 0.00 | 84 | 1018.3 |
| 20260903152532 | 73 | 216 | 5.0 | 23.0 | 0.00 | 0.00 | 0.00 | 85 | 1018.5 |
| 20260903152030 | 72 | 297 | 7.0 | 23.0 | 0.00 | 0.00 | 0.00 | 85 | 1018.6 |
| 20260903151534 | 72 | 313 | 7.0 | 18.0 | 0.00 | 0.00 | 0.00 | 85 | 1018.6 |
| 20260903151030 | 72 | 291 | 7.0 | 20.0 | 0.00 | 0.00 | 0.00 | 85 | 1018.6 |
| 20260903150531 | 72 | 212 | 7.0 | 20.0 | 0.00 | 0.00 | 0.00 | 85 | 1018.6 |
| 20260903145030 | 72 | 276 | 7.0 | 23.0 | 0.00 | 0.00 | 0.00 | 85 | 1018.8 |
| 20260903144531 | 73 | 244 | 4.0 | 14.0 | 0.00 | 0.00 | 0.00 | 84 | 1018.7 |
| 20260903144031 | 73 | 293 | 4.0 | 14.0 | 0.00 | 0.00 | 0.00 | 83 | 1018.8 |
| 20260903143532 | 73 | 289 | 4.0 | 16.0 | 0.00 | 0.00 | 0.00 | 82 | 1018.7 |
| 20260903143034 | 73 | 295 | 5.0 | 22.0 | 0.00 | 0.00 | 0.00 | 81 | 1018.7 |
| 20260903142533 | 73 | 315 | 5.0 | 22.0 | 0.00 | 0.00 | 0.00 | 81 | 1018.7 |
| 20260903142035 | 73 | 276 | 5.0 | 16.0 | 0.00 | 0.00 | 0.00 | 80 | 1018.7 |
| 20260903141534 | 74 | 30 | 5.0 | 20.0 | 0.00 | 0.00 | 0.00 | 81 | 1018.7 |
| 20260903141033 | 73 | 308 | 7.0 | 20.0 | 0.00 | 0.00 | 0.00 | 81 | 1018.6 |
| 20260903140533 | 73 | 172 | 7.0 | 20.0 | 0.00 | 0.00 | 0.00 | 81 | 1018.7 |
| 20260903140034 | 73 | 140 | 7.0 | 20.0 | 0.00 | 0.00 | 0.00 | 80 | 1018.6 |
| 20260903135530 | 74 | 245 | 7.0 | 16.0 | 0.00 | 0.00 | 0.00 | 80 | 1018.7 |
| 20260903135033 | 74 | 300 | 9.0 | 20.0 | 0.00 | 0.00 | 0.00 | 80 | 1018.8 |
| 20260903134529 | 74 | 284 | 7.0 | 20.0 | 0.00 | 0.00 | 0.00 | 80 | 1018.7 |
| 20260903134032 | 74 | 278 | 7.0 | 25.0 | 0.00 | 0.00 | 0.00 | 80 | 1018.6 |
| 20260903133031 | 73 | 336 | 7.0 | 20.0 | 0.00 | 0.00 | 0.00 | 80 | 1018.7 |
| 20260903132029 | 73 | 243 | 7.0 | 22.0 | 0.00 | 0.00 | 0.00 | 80 | 1018.6 |
| 20260903131028 | 74 | 299 | 9.0 | 22.0 | 0.00 | 0.00 | 0.00 | 80 | 1018.6 |
| 20260903130528 | 74 | 295 | 9.0 | 20.0 | 0.00 | 0.00 | 0.00 | 79 | 1018.7 |
| 20260903130027 | 74 | 282 | 7.0 | 20.0 | 0.00 | 0.00 | 0.00 | 80 | 1018.7 |
| 20260903125523 | 74 | 307 | 7.0 | 16.0 | 0.00 | 0.00 | 0.00 | 81 | 1018.7 |
| 20260903125025 | 74 | 283 | 7.0 | 18.0 | 0.00 | 0.00 | 0.00 | 80 | 1018.7 |
| 20260903124023 | 74 | 328 | 7.0 | 20.0 | 0.00 | 0.00 | 0.00 | 80 | 1018.5 |
| 20260903123523 | 74 | 282 | 9.0 | 20.0 | 0.00 | 0.00 | 0.00 | 80 | 1018.6 |
| 20260903123021 | 73 | 287 | 7.0 | 22.0 | 0.00 | 0.00 | 0.00 | 79 | 1018.8 |
| 20260903122521 | 74 | 280 | 9.0 | 25.0 | 0.00 | 0.00 | 0.00 | 79 | 1018.6 |
| 20260903122022 | 73 | 297 | 9.0 | 25.0 | 0.00 | 0.00 | 0.00 | 80 | 1018.6 |
| 20260903121524 | 73 | 328 | 7.0 | 22.0 | 0.00 | 0.00 | 0.00 | 80 | 1018.7 |
| 20260903121023 | 73 | 213 | 7.0 | 23.0 | 0.00 | 0.00 | 0.00 | 81 | 1018.7 |
| 20260903120523 | 73 | 293 | 9.0 | 23.0 | 0.00 | 0.00 | 0.00 | 81 | 1018.6 |
| 20260903120020 | 73 | 305 | 9.0 | 18.0 | 0.00 | 0.00 | 0.00 | 81 | 1018.7 |
| 20260903115522 | 73 | 319 | 7.0 | 20.0 | 0.00 | 0.00 | 0.00 | 82 | 1018.8 |
| 20260903115021 | 72 | 316 | 9.0 | 20.0 | 0.00 | 0.00 | 0.00 | 83 | 1018.6 |
| 20260903114524 | 71 | 301 | 7.0 | 20.0 | 0.00 | 0.00 | 0.00 | 84 | 1018.7 |
| 20260903114022 | 71 | 281 | 5.0 | 20.0 | 0.00 | 0.00 | 0.00 | 84 | 1018.7 |
| 20260903113523 | 71 | 302 | 5.0 | 20.0 | 0.00 | 0.00 | 0.00 | 83 | 1018.8 |
| 20260903112521 | 71 | 321 | 7.0 | 23.0 | 0.00 | 0.00 | 0.00 | 83 | 1018.8 |
| 20260903112022 | 71 | 298 | 7.0 | 18.0 | 0.00 | 0.00 | 0.00 | 83 | 1018.7 |
| 20260903111524 | 71 | 305 | 5.0 | 18.0 | 0.00 | 0.00 | 0.00 | 83 | 1018.6 |
| 20260903111021 | 71 | 356 | 5.0 | 12.0 | 0.00 | 0.00 | 0.00 | 83 | 1018.8 |
| 20260903110523 | 71 | 302 | 5.0 | 16.0 | 0.00 | 0.00 | 0.00 | 83 | 1018.7 |
| 20260903110020 | 71 | 307 | 7.0 | 16.0 | 0.00 | 0.00 | 0.00 | 83 | 1018.7 |
| 20260903105024 | 71 | 41 | 9.0 | 23.0 | 0.00 | 0.00 | 0.00 | 82 | 1018.6 |
| 20260903104021 | 73 | 150 | 7.0 | 16.0 | 0.00 | 0.00 | 0.00 | 81 | 1018.5 |
| 20260903103517 | 72 | 338 | 7.0 | 18.0 | 0.00 | 0.00 | 0.00 | 83 | 1018.6 |
| 20260903102519 | 71 | 160 | 7.0 | 23.0 | 0.00 | 0.00 | 0.00 | 84 | 1018.6 |
| 20260903102013 | 69 | 320 | 9.0 | 23.0 | 0.00 | 0.00 | 0.00 | 86 | 1018.7 |
| 20260903101515 | 69 | 271 | 7.0 | 20.0 | 0.00 | 0.00 | 0.00 | 86 | 1018.8 |
| 20260903101014 | 69 | 280 | 7.0 | 20.0 | 0.00 | 0.00 | 0.00 | 87 | 1018.8 |
| 20260903100510 | 68 | 323 | 9.0 | 20.0 | 0.00 | 0.00 | 0.00 | 86 | 1018.8 |
| 20260903100013 | 68 | 283 | 9.0 | 18.0 | 0.00 | 0.00 | 0.00 | 87 | 1019.0 |
| 20260903095508 | 68 | 213 | 7.0 | 16.0 | 0.00 | 0.00 | 0.00 | 87 | 1018.8 |
| 20260903095008 | 68 | 308 | 9.0 | 16.0 | 0.00 | 0.00 | 0.00 | 87 | 1018.7 |
| 20260903094509 | 68 | 305 | 7.0 | 16.0 | 0.00 | 0.00 | 0.00 | 86 | 1018.6 |
| 20260903094009 | 68 | 293 | 5.0 | 18.0 | 0.00 | 0.00 | 0.00 | 86 | 1018.5 |
| 20260903093507 | 68 | 268 | 7.0 | 18.0 | 0.00 | 0.00 | 0.00 | 86 | 1018.5 |
| 20260903093009 | 68 | 285 | 9.0 | 16.0 | 0.00 | 0.00 | 0.00 | 86 | 1018.3 |
| 20260903092505 | 68 | 315 | 7.0 | 20.0 | 0.00 | 0.00 | 0.00 | 86 | 1018.3 |
| 20260903092006 | 68 | 291 | 7.0 | 20.0 | 0.00 | 0.00 | 0.00 | 86 | 1018.4 |
| 20260903091504 | 68 | 304 | 5.0 | 18.0 | 0.00 | 0.00 | 0.00 | 86 | 1018.3 |